KPCD/PCD METAR and TAF weather

Enter ICAO airport designator
Station Type Date Time Source
KPCD METAR 2024/04/18 07:35 UTC NOAA

KPCD 180735Z AUTO 00000KT 10SM CLR 11/09 A2997 RMK AO2 T01120088


Station Type Date Time Source
KPCD Decoded METAR 2024/04/18 07:35 UTC NOAA

Station name not available
Apr 18, 2024 - 03:35 AM EDT / 2024.04.18 0735 UTC
Wind: Calm:0
Visibility: 10 mile(s):0
Sky conditions: clear
Temperature: 52.2 F (11.2 C)
Dew Point: 47.8 F (8.8 C)
Relative Humidity: 85%
Pressure (altimeter): 29.97 in. Hg (1014 hPa)
ob: KPCD 180735Z AUTO 00000KT 10SM CLR 11/09 A2997 RMK AO2 T01120088
cycle: 7

Station Type Date Time Source
KPCD TAF UTC NOAA

Error!

Example: see airport list